Nearby METAR Reports

 

KCMA - Camarillo, California, USA
Distance from station: WSW 4mi, 7km
Updated: Sun, 24-Mar-2019 8:55pm PDT
Clear
Clear
 Wind from W
Wind: W 3 mph , 6 km/h
Temperature: 57°F , 14°C
Dew Point: 48°F , 9°C
Humidity: 72%
Barometer: 30.16 inHg , 1021.3 hPa
Clouds: Clear
Visibility: 10 miles , 16 km
2019/03/25 03:55 KCMA 250355Z AUTO 27003KT 10SM CLR 14/09 A3016 RMK AO2 SLP222 T01440094
KNTD - Point Mugu Nas, California, USA
Distance from station: SSW 9mi, 15km
Updated: Sun, 24-Mar-2019 8:57pm PDT
Few Clouds
Few Clouds
 Wind from WNW
Wind: WNW 5 mph , 7 km/h
Temperature: 55°F , 13°C
Dew Point: 52°F , 11°C
Humidity: 88%
Barometer: 30.17 inHg , 1021.7 hPa
Clouds: Few Clouds
Visibility: 10 miles , 16 km
Cloud details: Few Clouds 1500 ft
2019/03/25 03:57 KNTD 250357Z 29004KT 10SM FEW015 13/11 A3017 RMK AO2 SLP219 T01330106 $
 
KOXR - Oxnard, California, USA
Distance from station: WSW 10mi, 16km
Updated: Sun, 24-Mar-2019 8:51pm PDT
Clear
Clear
 Wind from W
Wind: W 7 mph , 11 km/h
Temperature: 55°F , 13°C
Dew Point: 52°F , 11°C
Humidity: 88%
Barometer: 30.16 inHg , 1021.3 hPa
Clouds: Clear
Visibility: 9 miles , 14 km
2019/03/25 03:51 KOXR 250351Z AUTO 27006KT 9SM CLR 13/11 A3016 RMK AO2 SLP214 T01330111
KVNY - Van Nuys, California, USA
Distance from station: E 31mi, 50km
Updated: Sun, 24-Mar-2019 8:51pm PDT
Clear
Clear
 Wind from calm
Wind: Calm
Temperature: 63°F , 17°C
Dew Point: 48°F , 9°C
Humidity: 59%
Barometer: 30.14 inHg , 1020.7 hPa
Clouds: Clear
Visibility: 10 miles , 16 km
2019/03/25 03:51 KVNY 250351Z 00000KT 10SM CLR 17/09 A3014 RMK AO2 SLP202 T01670094
 
KWHP - La / Whiteman, California, USA
Distance from station: E 35mi, 56km
Updated: Sun, 24-Mar-2019 7:50pm PDT
NOT Current
Clear
Clear
 Wind from calm
Wind: Calm
Temperature: 64°F , 18°C
Dew Point: 48°F , 9°C
Humidity: 56%
Barometer: 30.14 inHg , 1020.7 hPa
Clouds: Clear
Visibility: 10 miles , 16 km
2019/03/25 02:50 KWHP 250250Z 00000KT 10SM SKC 18/09 A3014 RMK LAST
KSMO - Santa Monica, California, USA
Distance from station: ESE 36mi, 58km
Updated: Sun, 24-Mar-2019 8:51pm PDT
Clear
Clear
 Wind from SW
Wind: SW 6 mph , 9 km/h
Temperature: 57°F , 14°C
Dew Point: 52°F , 11°C
Humidity: 82%
Barometer: 30.16 inHg , 1021.3 hPa
Clouds: Clear
Visibility: 10 miles , 16 km
2019/03/25 03:51 KSMO 250351Z AUTO 23005KT 10SM CLR 14/11 A3016 RMK AO2 SLP213 T01440111
 
KBUR - Burbank, California, USA
Distance from station: E 38mi, 61km
Updated: Sun, 24-Mar-2019 8:53pm PDT
Clear
Clear
 Wind from SE
Wind: SE 6 mph , 9 km/h
Temperature: 59°F , 15°C
Dew Point: 48°F , 9°C
Humidity: 68%
Barometer: 30.15 inHg , 1021 hPa
Clouds: Clear
Visibility: 10 miles , 16 km
2019/03/25 03:53 KBUR 250353Z 14005KT 10SM CLR 15/09 A3015 RMK AO2 SLP202 T01500094
KSDB - Sandberg, California, USA
Distance from station: NNE 40mi, 64km
Updated: Sun, 24-Mar-2019 8:53pm PDT
Clear
Clear
 Wind from E
Wind: E 10 mph , 17 km/h
Temperature: 54°F , 12°C
Dew Point: 25°F , -4°C
Humidity: 33%
Barometer: 30.23 inHg , 1023.7 hPa
Clouds: Clear
Visibility: 10 miles , 16 km
2019/03/25 03:53 KSDB 250353Z AUTO 08009KT 10SM CLR 12/M04 A3023 RMK AO2 SLP214 T01171039
 
KLAX - Los Angeles, California, USA
Distance from station: ESE 42mi, 68km
Updated: Sun, 24-Mar-2019 8:53pm PDT
Clear
Clear
 Wind from WSW
Wind: WSW 7 mph , 11 km/h
Temperature: 57°F , 14°C
Dew Point: 52°F , 11°C
Humidity: 82%
Barometer: 30.16 inHg , 1021.3 hPa
Clouds: Clear
Visibility: 10 miles , 16 km
2019/03/25 03:53 KLAX 250353Z 25006KT 10SM CLR 14/11 A3016 RMK AO2 SLP213 T01440111
KCQT - Los Angeles, California, USA
Distance from station: ESE 45mi, 73km
Updated: Sun, 24-Mar-2019 8:47pm PDT
Clear
Clear
 Wind from W
Wind: W 3 mph , 6 km/h
Temperature: 59°F , 15°C
Dew Point: 50°F , 10°C
Humidity: 72%
Barometer: 30.15 inHg , 1021 hPa
Clouds: Clear
Visibility: 10 miles , 16 km
2019/03/25 03:47 KCQT 250347Z AUTO 26003KT 10SM CLR 15/10 A3015 RMK AO2 SLP211 T01500100
 
KHHR - Hawthorne, California, USA
Distance from station: ESE 45mi, 73km
Updated: Sun, 24-Mar-2019 8:53pm PDT
Clear
Clear
 Wind from WSW
Wind: WSW 7 mph , 11 km/h
Temperature: 61°F , 16°C
Dew Point: 52°F , 11°C
Humidity: 72%
Barometer: 30.17 inHg , 1021.7 hPa
Clouds: Clear
Visibility: 10 miles , 16 km
2019/03/25 03:53 KHHR 250353Z 25006KT 10SM CLR 16/11 A3017 RMK AO2 SLP215 T01560106
KSBA - Santa Barbara, California, USA
Distance from station: WNW 49mi, 79km
Updated: Sun, 24-Mar-2019 8:53pm PDT
Clear
Clear
 Wind from calm
Wind: Calm
Temperature: 55°F , 13°C
Dew Point: 52°F , 11°C
Humidity: 88%
Barometer: 30.16 inHg , 1021.3 hPa
Clouds: Clear
Visibility: 9 miles , 14 km
2019/03/25 03:53 KSBA 250353Z 00000KT 9SM CLR 13/11 A3016 RMK AO2 SLP211 T01280111